createdAt,value
2023-10-23T00:01:39.564Z,101249.13
2023-10-23T00:04:07.766Z,101255.13
2023-10-23T00:06:35.169Z,101256.88
2023-10-23T00:09:03.564Z,101256.91
2023-10-23T00:11:31.937Z,101263.13
2023-10-23T00:13:59.448Z,101264.13
2023-10-23T00:16:26.682Z,101267.84
2023-10-23T00:18:53.780Z,101262.59
2023-10-23T00:21:21.065Z,101265.31
2023-10-23T00:23:48.069Z,101268.97
2023-10-23T00:26:15.153Z,101266.47
2023-10-23T00:28:42.259Z,101266.50
2023-10-23T00:31:09.271Z,101271.81
2023-10-23T00:33:36.410Z,101276.28
2023-10-23T00:36:03.591Z,101279.06
2023-10-23T00:38:30.500Z,101275.78
2023-10-23T00:40:57.448Z,101283.72
2023-10-23T00:43:25.956Z,101285.50
2023-10-23T00:46:01.288Z,101290.75
2023-10-23T00:48:31.559Z,101297.78
2023-10-23T00:51:01.484Z,101290.03
2023-10-23T00:53:36.337Z,101289.94
2023-10-23T00:56:08.984Z,101305.81
2023-10-23T00:58:41.522Z,101305.91
2023-10-23T01:01:13.240Z,101317.34
2023-10-23T01:03:41.364Z,101313.03
2023-10-23T01:06:09.638Z,101308.53
2023-10-23T01:08:37.593Z,101309.44
2023-10-23T01:11:04.547Z,101301.56
2023-10-23T01:13:32.141Z,101293.69
2023-10-23T01:15:59.157Z,101293.69
2023-10-23T01:18:26.272Z,101292.72
2023-10-23T01:20:53.462Z,101292.69
2023-10-23T01:23:27.838Z,101297.91
2023-10-23T01:25:55.132Z,101293.50
2023-10-23T01:28:22.130Z,101309.22
2023-10-23T01:30:49.200Z,101304.97
2023-10-23T01:33:16.371Z,101301.50
2023-10-23T01:35:43.456Z,101300.59
2023-10-23T01:38:12.179Z,101292.78
2023-10-23T01:40:39.110Z,101293.69
2023-10-23T01:43:06.135Z,101300.59
2023-10-23T01:45:33.138Z,101302.31
2023-10-23T01:48:00.197Z,101302.34
2023-10-23T01:50:27.199Z,101305.94
2023-10-23T01:52:54.137Z,101304.19
2023-10-23T01:55:21.044Z,101293.72
2023-10-23T01:57:48.049Z,101303.31
2023-10-23T02:00:15.178Z,101299.75
2023-10-23T02:02:42.301Z,101291.13
2023-10-23T02:05:09.566Z,101296.31
2023-10-23T02:07:36.630Z,101312.84
2023-10-23T02:10:03.754Z,101309.34
2023-10-23T02:12:30.739Z,101304.00
2023-10-23T02:14:57.677Z,101308.44
2023-10-23T02:17:25.572Z,101302.91
2023-10-23T02:19:52.709Z,101306.28
2023-10-23T02:22:19.975Z,101302.66
2023-10-23T02:24:47.443Z,101302.66
2023-10-23T02:27:14.645Z,101307.84
2023-10-23T02:29:41.880Z,101308.66
2023-10-23T02:32:09.516Z,101312.97
2023-10-23T02:34:37.993Z,101312.88
2023-10-23T02:37:05.735Z,101321.59
2023-10-23T02:39:33.056Z,101317.00
2023-10-23T02:42:00.945Z,101320.63
2023-10-23T02:44:28.151Z,101313.69
2023-10-23T02:46:55.140Z,101310.81
2023-10-23T02:49:22.240Z,101314.19
2023-10-23T02:51:49.603Z,101323.69
2023-10-23T02:54:17.499Z,101323.56
2023-10-23T02:56:44.565Z,101318.19
2023-10-23T02:59:11.584Z,101314.44
2023-10-23T03:01:39.099Z,101305.59
2023-10-23T03:04:06.567Z,101309.84
2023-10-23T03:06:33.831Z,101314.88
2023-10-23T03:09:01.024Z,101315.66
2023-10-23T03:11:28.045Z,101319.13
2023-10-23T03:13:55.214Z,101318.25
2023-10-23T03:16:22.485Z,101311.00
2023-10-23T03:18:49.718Z,101310.25
2023-10-23T03:21:16.712Z,101319.72
2023-10-23T03:23:43.704Z,101322.19
2023-10-23T03:26:10.719Z,101324.69
2023-10-23T03:28:37.688Z,101319.22
2023-10-23T03:31:04.781Z,101320.06
2023-10-23T03:33:33.667Z,101317.50
2023-10-23T03:36:00.963Z,101320.03
2023-10-23T03:38:27.932Z,101311.16
2023-10-23T03:40:59.611Z,101320.50
2023-10-23T03:43:27.337Z,101326.66
2023-10-23T03:45:54.693Z,101321.22
2023-10-23T03:48:21.862Z,101315.88
2023-10-23T03:50:48.887Z,101318.53
2023-10-23T03:53:15.866Z,101311.44
2023-10-23T03:55:48.580Z,101315.69
2023-10-23T03:58:15.459Z,101315.81
2023-10-23T04:00:42.373Z,101316.47
2023-10-23T04:03:09.492Z,101319.00
2023-10-23T04:05:42.366Z,101313.59
2023-10-23T04:08:09.242Z,101323.94
2023-10-23T04:10:36.369Z,101328.22
2023-10-23T04:13:03.894Z,101324.44
2023-10-23T04:15:30.911Z,101322.75
2023-10-23T04:17:58.038Z,101320.84
2023-10-23T04:20:25.144Z,101319.81
2023-10-23T04:22:52.058Z,101322.22
2023-10-23T04:25:19.433Z,101319.63
2023-10-23T04:27:46.533Z,101317.78
2023-10-23T04:30:14.150Z,101317.69
2023-10-23T04:32:41.206Z,101325.78
2023-10-23T04:35:08.547Z,101319.72
2023-10-23T04:37:35.606Z,101327.38
2023-10-23T04:40:02.593Z,101321.16
2023-10-23T04:42:29.718Z,101315.75
2023-10-23T04:44:56.682Z,101312.91
2023-10-23T04:47:23.645Z,101307.69
2023-10-23T04:49:50.600Z,101300.75
2023-10-23T04:52:17.945Z,101300.66
2023-10-23T04:54:45.125Z,101305.81
2023-10-23T04:57:12.184Z,101307.38
2023-10-23T04:59:39.380Z,101302.84
2023-10-23T05:02:06.604Z,101301.97
2023-10-23T05:04:33.690Z,101308.88
2023-10-23T05:07:00.781Z,101303.63
2023-10-23T05:09:27.759Z,101311.16
2023-10-23T05:11:54.712Z,101311.50
2023-10-23T05:14:21.614Z,101305.16
2023-10-23T05:16:48.669Z,101312.00
2023-10-23T05:19:15.664Z,101315.25
2023-10-23T05:21:42.714Z,101313.38
2023-10-23T05:24:09.838Z,101308.88
2023-10-23T05:26:36.939Z,101310.59
2023-10-23T05:29:04.442Z,101312.44
2023-10-23T05:31:31.861Z,101311.66
2023-10-23T05:33:58.902Z,101308.13
2023-10-23T05:36:26.231Z,101306.25
2023-10-23T05:38:53.223Z,101297.63
2023-10-23T05:41:20.143Z,101306.47
2023-10-23T05:43:47.091Z,101313.47
2023-10-23T05:46:14.166Z,101328.06
2023-10-23T05:48:41.195Z,101331.56
2023-10-23T05:51:08.256Z,101314.22
2023-10-23T05:53:36.183Z,101285.31
2023-10-23T05:56:07.859Z,101257.78
2023-10-23T05:58:35.687Z,101244.09
2023-10-23T06:01:09.361Z,101251.38
2023-10-23T06:03:37.240Z,101256.81
2023-10-23T06:06:04.742Z,101254.22
2023-10-23T06:08:32.315Z,101255.19
2023-10-23T06:11:00.469Z,101251.75
2023-10-23T06:13:27.451Z,101256.22
2023-10-23T06:15:54.737Z,101266.00
2023-10-23T06:18:21.715Z,101257.22
2023-10-23T06:20:48.624Z,101261.66
2023-10-23T06:23:15.609Z,101259.91
2023-10-23T06:25:43.175Z,101264.31
2023-10-23T06:28:10.160Z,101261.69
2023-10-23T06:30:37.656Z,101259.09
2023-10-23T06:33:05.797Z,101258.22
2023-10-23T06:35:32.724Z,101264.41
2023-10-23T06:37:59.770Z,101257.38
2023-10-23T06:40:26.796Z,101258.25
2023-10-23T06:42:53.808Z,101253.88
2023-10-23T06:45:20.743Z,101248.56
2023-10-23T06:47:50.872Z,101255.66
2023-10-23T06:50:18.771Z,101240.63
2023-10-23T06:52:46.197Z,101236.22
2023-10-23T06:55:13.799Z,101245.09
2023-10-23T06:57:40.781Z,101238.91
2023-10-23T07:00:08.508Z,101244.22
2023-10-23T07:02:35.640Z,101246.88
2023-10-23T07:05:03.126Z,101246.88
2023-10-23T07:07:30.687Z,101249.53
2023-10-23T07:10:01.562Z,101252.19
2023-10-23T07:12:28.974Z,101260.13
2023-10-23T07:14:56.186Z,101259.25
2023-10-23T07:17:23.153Z,101262.78
2023-10-23T07:19:50.560Z,101268.09
2023-10-23T07:22:18.577Z,101269.84
2023-10-23T07:24:45.513Z,101267.22
2023-10-23T07:27:18.432Z,101273.41
2023-10-23T07:29:45.431Z,101262.78
2023-10-23T07:32:13.044Z,101275.16
2023-10-23T07:34:40.006Z,101271.63
2023-10-23T07:37:07.145Z,101278.69
2023-10-23T07:39:36.160Z,101264.56
2023-10-23T07:42:04.121Z,101259.31
2023-10-23T07:44:31.182Z,101266.34
2023-10-23T07:46:58.380Z,101266.38
2023-10-23T07:49:25.684Z,101276.97
2023-10-23T07:51:54.439Z,101270.81
2023-10-23T07:54:21.757Z,101271.69
2023-10-23T07:56:48.777Z,101257.56
2023-10-23T07:59:17.576Z,101254.03
2023-10-23T08:01:44.683Z,101249.59
2023-10-23T08:04:11.729Z,101248.72
2023-10-23T08:06:39.021Z,101252.25
2023-10-23T08:09:07.676Z,101246.06
2023-10-23T08:11:34.625Z,101244.31
2023-10-23T08:14:01.572Z,101253.13
2023-10-23T08:16:28.738Z,101264.63
2023-10-23T08:18:56.415Z,101253.13
2023-10-23T08:21:24.337Z,101256.69
2023-10-23T08:23:55.358Z,101257.56
2023-10-23T08:26:22.671Z,101253.16
2023-10-23T08:29:01.774Z,101261.97
2023-10-23T08:31:39.355Z,101260.22
2023-10-23T08:34:09.080Z,101254.03
2023-10-23T08:36:37.219Z,101254.91
2023-10-23T08:39:04.838Z,101248.72
2023-10-23T08:41:33.445Z,101252.25
2023-10-23T08:44:00.491Z,101258.44
2023-10-23T08:46:33.628Z,101248.72
2023-10-23T08:49:05.071Z,101263.75
2023-10-23T08:51:33.046Z,101254.91
2023-10-23T08:54:27.930Z,101254.03
2023-10-23T08:57:01.479Z,101248.72
2023-10-23T08:59:28.961Z,101243.44
2023-10-23T09:02:01.409Z,101246.09
2023-10-23T09:04:29.730Z,101248.72
2023-10-23T09:07:00.220Z,101241.66
2023-10-23T09:09:27.939Z,101246.09
2023-10-23T09:11:54.842Z,101239.00
2023-10-23T09:14:29.196Z,101229.28
2023-10-23T09:16:57.844Z,101225.75
2023-10-23T09:19:27.598Z,101227.53
2023-10-23T09:21:58.656Z,101222.22
2023-10-23T09:24:25.993Z,101223.09
2023-10-23T09:26:53.347Z,101216.97
2023-10-23T09:29:24.163Z,101209.84
2023-10-23T09:31:53.407Z,101212.50
2023-10-23T09:34:20.816Z,101216.94
2023-10-23T09:36:51.923Z,101216.06
2023-10-23T09:39:20.848Z,101226.69
2023-10-23T09:41:47.832Z,101220.50
2023-10-23T09:44:16.042Z,101217.84
2023-10-23T09:46:43.792Z,101222.25
2023-10-23T09:49:11.715Z,101223.16
2023-10-23T09:51:41.227Z,101225.78
2023-10-23T09:54:19.025Z,101220.50
2023-10-23T09:56:53.129Z,101210.78
2023-10-23T09:59:28.443Z,101210.78
2023-10-23T10:02:01.962Z,101205.50
2023-10-23T10:05:01.405Z,101206.34
2023-10-23T10:07:37.592Z,101209.91
2023-10-23T10:10:06.564Z,101202.81
2023-10-23T10:12:39.027Z,101208.16
2023-10-23T10:15:10.880Z,101200.19
2023-10-23T10:17:44.109Z,101194.91
2023-10-23T10:20:12.592Z,101187.81
2023-10-23T10:22:42.589Z,101195.78
2023-10-23T10:25:11.329Z,101190.47
2023-10-23T10:27:38.568Z,101183.41
2023-10-23T10:30:07.211Z,101187.81
2023-10-23T10:32:34.950Z,101181.63
2023-10-23T10:35:42.197Z,101176.34
2023-10-23T10:38:15.872Z,101163.97
2023-10-23T10:40:56.201Z,101155.13
2023-10-23T10:43:25.989Z,101157.78
2023-10-23T10:45:54.803Z,101153.34
2023-10-23T10:48:23.580Z,101152.47
2023-10-23T10:50:51.031Z,101148.94
2023-10-23T10:53:18.167Z,101141.00
2023-10-23T10:55:47.015Z,101145.41
2023-10-23T10:58:14.867Z,101136.56
2023-10-23T11:00:41.893Z,101127.72
2023-10-23T11:03:09.197Z,101126.84
2023-10-23T11:05:39.132Z,101118.91
2023-10-23T11:08:06.231Z,101119.78
2023-10-23T11:10:33.386Z,101104.72
2023-10-23T11:13:00.658Z,101103.00
2023-10-23T11:15:27.652Z,101103.88
2023-10-23T11:17:55.077Z,101090.63
2023-10-23T11:20:22.155Z,101098.56
2023-10-23T11:22:49.478Z,101096.78
2023-10-23T11:25:17.289Z,101093.25
2023-10-23T11:27:44.379Z,101089.72
2023-10-23T11:30:11.745Z,101076.47
2023-10-23T11:32:40.982Z,101072.06
2023-10-23T11:35:08.525Z,101064.97
2023-10-23T11:37:43.163Z,101055.25
2023-10-23T11:40:12.345Z,101052.63
2023-10-23T11:42:58.179Z,101049.97
2023-10-23T11:45:25.334Z,101041.13
2023-10-23T11:47:55.848Z,101031.41
2023-10-23T11:50:23.295Z,101033.16
2023-10-23T11:52:50.641Z,101029.63
2023-10-23T11:55:19.098Z,101021.69
2023-10-23T11:57:51.511Z,101025.22
2023-10-23T12:00:21.851Z,101026.97
2023-10-23T12:02:49.646Z,101019.03
2023-10-23T12:05:19.485Z,101026.09
2023-10-23T12:07:54.113Z,101022.53
2023-10-23T12:10:27.119Z,101017.28
2023-10-23T12:12:56.402Z,101000.47
2023-10-23T12:15:24.866Z,101006.66
2023-10-23T12:17:52.442Z,101000.47
2023-10-23T12:20:23.013Z,101001.34
2023-10-23T12:22:51.321Z,100991.63
2023-10-23T12:25:18.432Z,100990.72
2023-10-23T12:27:46.017Z,100981.88
2023-10-23T12:30:16.342Z,100973.94
2023-10-23T12:33:13.714Z,100959.81
2023-10-23T12:35:36.287Z,100961.56
2023-10-23T12:38:03.700Z,100967.75
2023-10-23T12:40:33.437Z,100965.09
2023-10-23T12:43:03.246Z,100958.91
2023-10-23T12:45:30.356Z,100954.50
2023-10-23T12:47:57.590Z,100957.16
2023-10-23T12:50:24.630Z,100953.63
2023-10-23T12:52:51.638Z,100951.84
2023-10-23T12:55:18.664Z,100947.44
2023-10-23T12:57:45.792Z,100940.34
2023-10-23T13:00:16.217Z,100942.13
2023-10-23T13:02:44.204Z,100925.31
2023-10-23T13:05:12.394Z,100927.09
2023-10-23T13:07:39.715Z,100917.41
2023-10-23T13:10:07.373Z,100917.41
2023-10-23T13:12:35.981Z,100908.56
2023-10-23T13:15:04.756Z,100897.97
2023-10-23T13:17:32.266Z,100891.75
2023-10-23T13:21:27.750Z,100887.34
2023-10-23T13:22:49.569Z,100883.78
2023-10-23T13:25:19.530Z,100886.47
2023-10-23T13:27:46.966Z,100888.25
2023-10-23T13:30:14.029Z,100893.53
2023-10-23T13:32:41.082Z,100893.50
2023-10-23T13:35:09.200Z,100881.13
2023-10-23T13:37:36.682Z,100875.84
2023-10-23T13:40:08.570Z,100872.28
2023-10-23T13:42:36.701Z,100868.75
2023-10-23T13:45:04.370Z,100872.28
2023-10-23T13:47:32.272Z,100864.38
2023-10-23T13:49:59.593Z,100863.47
2023-10-23T13:52:26.981Z,100856.41
2023-10-23T13:54:55.059Z,100866.13
2023-10-23T13:57:22.256Z,100854.63
2023-10-23T13:59:49.330Z,100853.75
2023-10-23T14:02:16.487Z,100844.03
2023-10-23T14:04:43.531Z,100839.59
2023-10-23T14:07:13.378Z,100837.78
2023-10-23T14:09:46.451Z,100828.94
2023-10-23T14:12:15.821Z,100830.72
2023-10-23T14:14:42.886Z,100828.06
2023-10-23T14:17:10.230Z,100815.69
2023-10-23T14:19:46.756Z,100807.75
2023-10-23T14:22:18.330Z,100799.84
2023-10-23T14:24:47.602Z,100794.53
2023-10-23T14:27:14.594Z,100788.38
2023-10-23T14:29:41.829Z,100779.50
2023-10-23T14:32:09.032Z,100770.66
2023-10-23T14:34:36.547Z,100772.44
2023-10-23T14:37:04.110Z,100768.03
2023-10-23T14:39:31.114Z,100761.84
2023-10-23T14:41:58.167Z,100752.16
2023-10-23T14:44:25.384Z,100756.59
2023-10-23T14:46:53.311Z,100749.50
2023-10-23T14:49:20.553Z,100753.91
2023-10-23T14:51:47.797Z,100741.56
2023-10-23T14:54:15.735Z,100745.94
2023-10-23T14:56:42.779Z,100744.16
2023-10-23T14:59:09.865Z,100746.84
2023-10-23T15:01:37.099Z,100716.41
2023-10-23T15:04:05.058Z,100716.41
2023-10-23T15:06:32.138Z,100720.84
2023-10-23T15:08:59.844Z,100727.00
2023-10-23T15:11:26.899Z,100738.47
2023-10-23T15:13:54.320Z,100749.03
2023-10-23T15:16:21.567Z,100739.34
2023-10-23T15:18:48.812Z,100738.41
2023-10-23T15:21:18.786Z,100731.38
2023-10-23T15:23:45.831Z,100728.72
2023-10-23T15:26:12.920Z,100717.28
2023-10-23T15:28:39.924Z,100711.13
2023-10-23T15:31:07.582Z,100692.63
2023-10-23T15:33:38.769Z,100698.78
2023-10-23T15:36:06.803Z,100689.97
2023-10-23T15:38:36.136Z,100704.06
2023-10-23T15:41:14.775Z,100720.75
2023-10-23T15:43:46.099Z,100713.66
2023-10-23T15:46:16.321Z,100726.00
2023-10-23T15:48:44.198Z,100722.47
2023-10-23T15:51:12.097Z,100725.09
2023-10-23T15:53:39.586Z,100718.06
2023-10-23T15:56:07.219Z,100704.84
2023-10-23T15:58:36.412Z,100707.47
2023-10-23T16:01:05.156Z,100700.41
2023-10-23T16:03:36.322Z,100696.00
2023-10-23T16:06:09.461Z,100693.34
2023-10-23T16:08:37.398Z,100696.84
2023-10-23T16:11:04.871Z,100685.41
2023-10-23T16:13:38.235Z,100681.81
2023-10-23T16:16:16.881Z,100681.81
2023-10-23T16:18:46.106Z,100688.84
2023-10-23T16:21:15.389Z,100682.66
2023-10-23T16:23:42.811Z,100679.13
2023-10-23T16:26:09.900Z,100689.69
2023-10-23T16:28:36.965Z,100686.16
2023-10-23T16:31:04.164Z,100682.63
2023-10-23T16:33:31.277Z,100686.97
2023-10-23T16:35:58.326Z,100684.31
2023-10-23T16:38:25.294Z,100670.25
2023-10-23T16:40:52.314Z,100670.22
2023-10-23T16:43:20.087Z,100657.91
2023-10-23T16:45:49.797Z,100655.28
2023-10-23T16:48:16.883Z,100650.00
2023-10-23T16:50:43.855Z,100642.94
2023-10-23T16:53:10.851Z,100630.63
2023-10-23T16:55:38.243Z,100628.88
2023-10-23T16:58:05.613Z,100638.53
2023-10-23T17:00:32.707Z,100641.16
2023-10-23T17:03:01.460Z,100634.09
2023-10-23T17:05:28.621Z,100622.69
2023-10-23T17:07:55.978Z,100627.09
2023-10-23T17:10:23.028Z,100627.09
2023-10-23T17:12:50.133Z,100612.16
2023-10-23T17:15:17.718Z,100606.88
2023-10-23T17:17:44.729Z,100607.72
2023-10-23T17:20:12.401Z,100611.22
2023-10-23T17:22:39.541Z,100612.97
2023-10-23T17:25:08.988Z,100619.13
2023-10-23T17:27:36.484Z,100604.19
2023-10-23T17:30:04.334Z,100627.03
2023-10-23T17:32:31.772Z,100615.59
2023-10-23T17:34:58.844Z,100618.22
2023-10-23T17:37:25.948Z,100620.84
2023-10-23T17:39:53.001Z,100613.84
2023-10-23T17:42:20.054Z,100615.56
2023-10-23T17:44:47.275Z,100622.63
2023-10-23T17:47:14.586Z,100620.84
2023-10-23T17:49:41.849Z,100628.75
2023-10-23T17:52:10.272Z,100619.94
2023-10-23T17:54:38.664Z,100623.47
2023-10-23T17:57:05.897Z,100620.84
2023-10-23T17:59:34.554Z,100608.53
2023-10-23T18:02:01.947Z,100608.56
2023-10-23T18:04:31.219Z,100596.22
2023-10-23T18:06:58.329Z,100596.22
2023-10-23T18:09:25.467Z,100593.59
2023-10-23T18:11:52.564Z,100583.94
2023-10-23T18:14:19.527Z,100584.81
2023-10-23T18:16:46.703Z,100581.28
2023-10-23T18:19:16.775Z,100575.13
2023-10-23T18:21:44.151Z,100576.94
2023-10-23T18:24:13.504Z,100576.91
2023-10-23T18:26:40.559Z,100570.75
2023-10-23T18:29:07.629Z,100571.63
2023-10-23T18:31:36.878Z,100569.00
2023-10-23T18:34:05.201Z,100562.84
2023-10-23T18:36:33.890Z,100558.44
2023-10-23T18:39:05.305Z,100553.16
2023-10-23T18:41:32.475Z,100543.50
2023-10-23T18:43:59.523Z,100549.66
2023-10-23T18:46:26.700Z,100539.09
2023-10-23T18:48:53.980Z,100537.34
2023-10-23T18:51:20.998Z,100535.59
2023-10-23T18:53:48.192Z,100526.75
2023-10-23T18:56:16.272Z,100520.66
2023-10-23T18:58:43.355Z,100526.78
2023-10-23T19:01:13.350Z,100523.28
2023-10-23T19:03:42.382Z,100525.03
2023-10-23T19:06:10.285Z,100519.75
2023-10-23T19:08:37.299Z,100519.75
2023-10-23T19:11:05.104Z,100517.94
2023-10-23T19:13:32.182Z,100516.25
2023-10-23T19:16:00.798Z,100502.13
2023-10-23T19:18:30.997Z,100498.59
2023-10-23T19:21:03.017Z,100506.50
2023-10-23T19:23:30.349Z,100481.03
2023-10-23T19:25:57.377Z,100483.66
2023-10-23T19:28:25.701Z,100477.50
2023-10-23T19:30:54.857Z,100468.72
2023-10-23T19:33:22.493Z,100469.59
2023-10-23T19:35:49.770Z,100465.19
2023-10-23T19:38:20.966Z,100464.31
2023-10-23T19:40:52.599Z,100466.94
2023-10-23T19:43:26.141Z,100459.91
2023-10-23T19:45:53.651Z,100466.06
2023-10-23T19:48:21.610Z,100456.41
2023-10-23T19:50:48.857Z,100457.28
2023-10-23T19:53:17.040Z,100445.84
2023-10-23T19:55:47.300Z,100441.47
2023-10-23T19:58:17.026Z,100446.72
2023-10-23T20:00:44.496Z,100437.06
2023-10-23T20:03:11.544Z,100417.75
2023-10-23T20:05:38.637Z,100430.03
2023-10-23T20:08:06.105Z,100417.75
2023-10-23T20:10:33.532Z,100417.72
2023-10-23T20:13:00.703Z,100407.19
2023-10-23T20:15:28.050Z,100410.72
2023-10-23T20:17:58.352Z,100401.06
2023-10-23T20:20:26.762Z,100398.41
2023-10-23T20:22:54.019Z,100392.25
2023-10-23T20:25:21.293Z,100386.13
2023-10-23T20:27:49.788Z,100375.56
2023-10-23T20:30:16.826Z,100372.94
2023-10-23T20:32:44.007Z,100369.38
2023-10-23T20:35:11.007Z,100375.56
2023-10-23T20:37:38.122Z,100370.25
2023-10-23T20:40:06.383Z,100372.00
2023-10-23T20:42:35.221Z,100365.03
2023-10-23T20:45:06.377Z,100360.59
2023-10-23T20:47:34.596Z,100356.25
2023-10-23T20:50:05.887Z,100350.94
2023-10-23T20:52:33.392Z,100344.78
2023-10-23T20:55:01.749Z,100347.44
2023-10-23T20:57:28.891Z,100362.38
2023-10-23T20:59:55.903Z,100371.13
2023-10-23T21:02:22.887Z,100335.13
2023-10-23T21:04:49.974Z,100324.59
2023-10-23T21:07:18.136Z,100337.75
2023-10-23T21:09:45.135Z,100334.25
2023-10-23T21:12:12.165Z,100322.84
2023-10-23T21:14:49.001Z,100315.81
2023-10-23T21:17:17.601Z,100319.31
2023-10-23T21:19:44.657Z,100311.41
2023-10-23T21:22:12.182Z,100311.41
2023-10-23T21:24:39.286Z,100307.03
2023-10-23T21:27:06.343Z,100312.28
2023-10-23T21:29:33.312Z,100307.03
2023-10-23T21:32:01.674Z,100299.13
2023-10-23T21:34:28.884Z,100300.00
2023-10-23T21:36:55.998Z,100291.22
2023-10-23T21:39:22.999Z,100291.22
2023-10-23T21:41:50.118Z,100283.31
2023-10-23T21:44:17.179Z,100285.97
2023-10-23T21:46:44.242Z,100285.06
2023-10-23T21:49:11.659Z,100274.53
2023-10-23T21:51:39.801Z,100273.66
2023-10-23T21:54:07.421Z,100265.75
2023-10-23T21:57:16.127Z,100271.91
2023-10-23T21:59:22.756Z,100257.84
2023-10-23T22:01:53.383Z,100240.31
2023-10-23T22:04:21.447Z,100242.94
2023-10-23T22:06:48.766Z,100249.97
2023-10-23T22:09:16.687Z,100239.41
2023-10-23T22:11:44.494Z,100248.19
2023-10-23T22:14:12.140Z,100253.47
2023-10-23T22:16:39.299Z,100247.31
2023-10-23T22:19:06.626Z,100250.84
2023-10-23T22:21:33.780Z,100256.09
2023-10-23T22:24:00.742Z,100253.47
2023-10-23T22:26:32.691Z,100255.22
2023-10-23T22:29:00.537Z,100257.84
2023-10-23T22:31:27.755Z,100249.97
2023-10-23T22:33:55.141Z,100251.72
2023-10-23T22:36:22.104Z,100246.44
2023-10-23T22:38:49.512Z,100243.81
2023-10-23T22:41:17.140Z,100237.66
2023-10-23T22:43:44.294Z,100242.94
2023-10-23T22:46:11.392Z,100237.66
2023-10-23T22:48:38.437Z,100228.88
2023-10-23T22:51:05.901Z,100231.53
2023-10-23T22:53:34.100Z,100232.41
2023-10-23T22:56:04.003Z,100225.38
2023-10-23T22:58:32.286Z,100229.75
2023-10-23T23:01:00.314Z,100217.47
2023-10-23T23:03:27.899Z,100225.38
2023-10-23T23:06:01.774Z,100224.50
2023-10-23T23:08:30.627Z,100220.97
2023-10-23T23:10:58.136Z,100224.50
2023-10-23T23:13:25.637Z,100230.66
2023-10-23T23:15:55.857Z,100221.88
2023-10-23T23:18:23.628Z,100226.25
2023-10-23T23:20:53.477Z,100226.25
2023-10-23T23:23:20.416Z,100222.75
2023-10-23T23:25:47.608Z,100225.38
2023-10-23T23:28:14.554Z,100229.75
2023-10-23T23:30:41.818Z,100233.28
2023-10-23T23:33:08.881Z,100221.88
2023-10-23T23:35:37.049Z,100221.88
2023-10-23T23:38:04.052Z,100220.97
2023-10-23T23:40:31.072Z,100227.13
2023-10-23T23:42:58.068Z,100237.66
2023-10-23T23:45:25.224Z,100233.28
2023-10-23T23:47:52.151Z,100238.53
2023-10-23T23:50:19.177Z,100235.91
2023-10-23T23:52:46.493Z,100235.03
2023-10-23T23:55:13.576Z,100245.56
2023-10-23T23:57:40.566Z,100245.56
